Time;durP1;ratioP1;P1;durP2;ratioP2;P2;SDS_P1;SDS_P2;PMS_P1;PMS_P2;Temp;Humidity;BMP_temperature;BMP_pressure;BME280_temperature;BME280_humidity;BME280_pressure;Samples;Min_cycle;Max_cycle;Signal;HPM_P1;HPM_P2
2023/05/18 00:00:43;;;;;;;;;;;18.90;56.00;;;;;;10209292;28;93592;-71
2023/05/18 00:05:46;;;;;;;;;;;18.90;56.00;;;;;;10207072;28;96172;-71
2023/05/18 00:10:47;;;;;;;;;;;18.80;55.90;;;;;;10208746;28;94656;-72
2023/05/18 00:15:49;;;;;;;;;;;18.80;55.90;;;;;;10209300;28;93528;-71
2023/05/18 00:20:57;;;;;;;;;;;18.80;55.90;;;;;;10191578;28;93523;-70
2023/05/18 00:26:00;;;;;;;;;;;18.80;55.90;;;;;;10208837;28;93640;-71
2023/05/18 00:31:01;;;;;;;;;;;18.80;55.90;;;;;;10208221;28;93001;-71
2023/05/18 00:36:03;;;;;;;;;;;18.80;55.80;;;;;;10209080;28;94575;-71
2023/05/18 00:41:05;;;;;;;;;;;18.80;56.80;;;;;;10210382;28;93781;-71
2023/05/18 00:46:07;;;;;;;;;;;18.80;55.60;;;;;;10207794;28;94444;-72
2023/05/18 00:51:09;;;;;;;;;;;18.80;55.70;;;;;;10206820;28;93508;-72
2023/05/18 00:56:11;;;;;;;;;;;18.80;55.60;;;;;;10205717;28;96613;-71
2023/05/18 01:01:16;;;;;;;;;;;18.70;55.50;;;;;;10189759;28;93698;-71
2023/05/18 01:06:18;;;;;;;;;;;18.80;55.60;;;;;;10189432;28;93430;-71
2023/05/18 01:11:31;;;;;;;;;;;18.80;55.40;;;;;;10207599;28;96413;-71
2023/05/18 01:16:42;;;;;;;;;;;18.80;55.40;;;;;;10192083;28;93496;-71
2023/05/18 01:21:56;;;;;;;;;;;18.80;55.30;;;;;;10197089;28;93979;-71
2023/05/18 01:26:59;;;;;;;;;;;18.80;55.20;;;;;;10214720;28;94597;-72
2023/05/18 01:32:05;;;;;;;;;;;18.80;55.20;;;;;;10214987;28;93771;-72
2023/05/18 01:37:07;;;;;;;;;;;18.80;55.20;;;;;;10196318;28;94627;-72
2023/05/18 01:42:14;;;;;;;;;;;18.70;55.00;;;;;;10214017;28;93640;-71
2023/05/18 01:47:16;;;;;;;;;;;18.70;55.10;;;;;;10211322;28;96942;-71
2023/05/18 01:52:19;;;;;;;;;;;18.70;55.00;;;;;;10213012;28;93859;-71
2023/05/18 01:57:23;;;;;;;;;;;18.70;55.10;;;;;;10213087;28;93702;-71
2023/05/18 02:02:25;;;;;;;;;;;18.70;55.00;;;;;;10214532;28;94703;-71
2023/05/18 02:07:27;;;;;;;;;;;18.70;54.90;;;;;;10213516;28;94672;-72
2023/05/18 02:12:28;;;;;;;;;;;18.70;54.90;;;;;;10212527;28;93658;-72
2023/05/18 02:17:36;;;;;;;;;;;18.70;54.90;;;;;;10212871;28;93557;-72
2023/05/18 02:22:38;;;;;;;;;;;18.70;54.90;;;;;;10213296;28;95681;-71
2023/05/18 02:27:40;;;;;;;;;;;18.60;54.80;;;;;;10211684;28;93876;-72
2023/05/18 02:32:45;;;;;;;;;;;18.60;54.90;;;;;;10212230;28;93453;-71
2023/05/18 02:37:48;;;;;;;;;;;18.60;54.80;;;;;;10209630;28;96329;-71
2023/05/18 02:42:50;;;;;;;;;;;18.60;54.80;;;;;;10194660;28;93669;-70
2023/05/18 02:47:52;;;;;;;;;;;18.60;54.80;;;;;;10211836;28;94503;-71
2023/05/18 02:52:54;;;;;;;;;;;18.50;54.80;;;;;;10210200;28;93636;-71
2023/05/18 02:57:56;;;;;;;;;;;18.50;54.80;;;;;;10210396;28;93422;-71
2023/05/18 03:02:59;;;;;;;;;;;18.50;54.80;;;;;;10210495;28;93579;-71
2023/05/18 03:08:01;;;;;;;;;;;18.50;54.80;;;;;;10210609;28;94423;-71
2023/05/18 03:13:02;;;;;;;;;;;18.50;54.80;;;;;;10211813;28;94226;-71
2023/05/18 03:18:04;;;;;;;;;;;18.50;54.80;;;;;;10210862;28;94509;-71
2023/05/18 03:23:07;;;;;;;;;;;18.40;54.70;;;;;;10210232;28;93524;-71
2023/05/18 03:28:09;;;;;;;;;;;18.40;54.70;;;;;;10208067;28;97532;-71
2023/05/18 03:33:11;;;;;;;;;;;18.40;54.70;;;;;;10192479;28;92662;-71
2023/05/18 03:38:13;;;;;;;;;;;18.40;54.70;;;;;;10175791;28;94331;-72
2023/05/18 03:43:14;;;;;;;;;;;18.40;54.70;;;;;;10209625;28;94162;-71
2023/05/18 05:06:55;;;;;;;;;;;18.30;54.40;;;;;;10120829;28;93262;-64
2023/05/18 05:11:56;;;;;;;;;;;18.30;54.40;;;;;;10128609;28;93413;-64
2023/05/18 05:16:58;;;;;;;;;;;18.30;54.40;;;;;;10126596;28;93912;-64
2023/05/18 05:21:59;;;;;;;;;;;18.30;54.40;;;;;;10110960;28;94612;-64
2023/05/18 05:27:01;;;;;;;;;;;18.30;54.40;;;;;;10107330;28;95252;-65
2023/05/18 05:32:03;;;;;;;;;;;18.30;54.40;;;;;;10125905;28;93640;-64
2023/05/18 05:37:05;;;;;;;;;;;18.30;54.40;;;;;;10125796;28;94465;-65
2023/05/18 05:42:07;;;;;;;;;;;18.30;54.50;;;;;;10127155;28;94540;-64
2023/05/18 05:52:12;;;;;;;;;;;18.30;55.30;;;;;;10163426;28;93428;-64
2023/05/18 05:57:14;;;;;;;;;;;18.40;55.30;;;;;;10162855;28;93672;-65
2023/05/18 06:02:15;;;;;;;;;;;18.40;55.30;;;;;;10165914;28;94068;-64
2023/05/18 06:07:17;;;;;;;;;;;18.40;55.30;;;;;;10170059;28;93534;-65
2023/05/18 06:12:19;;;;;;;;;;;18.40;55.30;;;;;;10151711;28;94619;-65
2023/05/18 06:17:20;;;;;;;;;;;18.40;55.40;;;;;;10168124;28;96065;-64
2023/05/18 06:22:22;;;;;;;;;;;18.40;55.40;;;;;;10171565;28;93000;-64
2023/05/18 06:27:24;;;;;;;;;;;18.40;55.30;;;;;;10170668;28;93580;-64
2023/05/18 06:32:26;;;;;;;;;;;18.50;55.50;;;;;;10171017;28;93586;-65
2023/05/18 06:37:28;;;;;;;;;;;18.50;55.40;;;;;;10170756;28;94401;-65
2023/05/18 06:42:31;;;;;;;;;;;18.50;55.40;;;;;;10171037;28;93790;-66
2023/05/18 06:47:33;;;;;;;;;;;18.50;57.20;;;;;;10166219;28;93448;-64
2023/05/18 06:52:34;;;;;;;;;;;18.60;56.80;;;;;;10172358;28;93916;-64
2023/05/18 06:57:36;;;;;;;;;;;18.60;57.40;;;;;;10172262;28;93325;-65
2023/05/18 07:02:38;;;;;;;;;;;18.70;57.60;;;;;;10165200;28;93674;-66
2023/05/18 07:07:40;;;;;;;;;;;18.70;57.60;;;;;;10162206;28;95867;-64
2023/05/18 07:12:42;;;;;;;;;;;18.70;57.50;;;;;;10166075;28;94468;-64
2023/05/18 07:17:44;;;;;;;;;;;18.70;57.30;;;;;;10167300;28;94773;-64
2023/05/18 07:22:45;;;;;;;;;;;18.70;57.30;;;;;;10167668;28;93712;-64
2023/05/18 07:27:47;;;;;;;;;;;18.70;57.30;;;;;;10165760;28;93517;-64
2023/05/18 07:32:50;;;;;;;;;;;18.70;57.40;;;;;;10159306;28;94635;-64
2023/05/18 07:37:52;;;;;;;;;;;18.60;57.60;;;;;;10149479;28;94503;-64
2023/05/18 07:42:54;;;;;;;;;;;18.60;57.70;;;;;;10148287;28;92699;-64
2023/05/18 07:47:57;;;;;;;;;;;18.60;58.00;;;;;;10148241;28;94446;-63
2023/05/18 07:52:59;;;;;;;;;;;18.60;57.90;;;;;;10163491;28;94535;-63
2023/05/18 07:58:00;;;;;;;;;;;18.60;57.40;;;;;;10165374;28;95896;-63
2023/05/18 08:03:02;;;;;;;;;;;18.60;57.40;;;;;;10167773;28;94081;-63
2023/05/18 08:08:04;;;;;;;;;;;18.60;56.80;;;;;;10168554;28;93398;-63
2023/05/18 08:13:07;;;;;;;;;;;18.50;56.60;;;;;;10182252;28;93748;-63
2023/05/18 08:18:09;;;;;;;;;;;18.50;56.60;;;;;;10168908;28;95282;-64
2023/05/18 08:23:11;;;;;;;;;;;18.50;56.50;;;;;;10167609;28;94622;-64
2023/05/18 08:28:13;;;;;;;;;;;18.50;56.30;;;;;;10165538;28;93653;-63
2023/05/18 08:33:14;;;;;;;;;;;18.50;56.30;;;;;;10169032;28;93902;-64
2023/05/18 08:38:16;;;;;;;;;;;18.50;56.30;;;;;;10168454;28;94385;-63
2023/05/18 08:43:22;;;;;;;;;;;18.50;56.30;;;;;;10164716;28;93649;-64
2023/05/18 08:48:25;;;;;;;;;;;18.50;56.20;;;;;;10158143;28;97044;-63
2023/05/18 08:53:31;;;;;;;;;;;18.40;56.00;;;;;;10166935;28;93702;-64
2023/05/18 08:58:34;;;;;;;;;;;18.50;56.10;;;;;;10167813;28;93760;-63
2023/05/18 09:03:37;;;;;;;;;;;18.50;56.10;;;;;;10167286;28;94764;-63
2023/05/18 09:08:38;;;;;;;;;;;18.50;55.90;;;;;;10167549;28;93567;-63
2023/05/18 09:13:42;;;;;;;;;;;18.50;55.60;;;;;;10167962;28;93724;-63
2023/05/18 09:18:43;;;;;;;;;;;18.50;55.90;;;;;;10165750;28;93638;-63
2023/05/18 09:23:46;;;;;;;;;;;18.50;55.70;;;;;;10168264;28;93835;-62
2023/05/18 09:28:51;;;;;;;;;;;18.50;55.70;;;;;;10166514;28;94907;-63
2023/05/18 09:33:52;;;;;;;;;;;18.60;55.70;;;;;;10166312;28;93493;-63
2023/05/18 09:38:54;;;;;;;;;;;18.60;55.60;;;;;;10165653;28;96834;-64
2023/05/18 09:43:56;;;;;;;;;;;18.60;55.70;;;;;;10136776;28;93710;-61
2023/05/18 09:48:58;;;;;;;;;;;18.60;56.20;;;;;;10173611;28;94708;-63
2023/05/18 09:54:03;;;;;;;;;;;18.70;55.10;;;;;;10155947;28;93679;-63
2023/05/18 09:59:13;;;;;;;;;;;18.70;52.00;;;;;;10155765;28;93842;-62
2023/05/18 10:04:15;;;;;;;;;;;18.70;48.30;;;;;;10172510;28;94426;-62
2023/05/18 10:09:16;;;;;;;;;;;18.70;49.90;;;;;;10172305;28;93498;-64
2023/05/18 10:14:22;;;;;;;;;;;18.80;50.40;;;;;;10173389;28;93581;-63
2023/05/18 10:19:24;;;;;;;;;;;18.90;51.70;;;;;;10172547;28;94473;-66
2023/05/18 10:24:26;;;;;;;;;;;19.00;54.30;;;;;;10171040;28;93477;-65
2023/05/18 10:29:28;;;;;;;;;;;19.10;54.00;;;;;;10169872;28;96948;-65
2023/05/18 10:34:33;;;;;;;;;;;19.10;53.50;;;;;;10154902;28;94602;-65
2023/05/18 10:39:36;;;;;;;;;;;19.30;53.40;;;;;;10170553;28;93955;-63
2023/05/18 10:44:38;;;;;;;;;;;19.30;53.90;;;;;;10171467;28;94007;-63
2023/05/18 10:49:46;;;;;;;;;;;19.30;54.70;;;;;;10168474;28;93531;-63
2023/05/18 10:54:47;;;;;;;;;;;19.40;53.70;;;;;;10156560;28;94710;-64
2023/05/18 10:59:49;;;;;;;;;;;19.40;53.60;;;;;;10171072;28;93493;-65
2023/05/18 11:04:52;;;;;;;;;;;19.30;54.10;;;;;;10153367;28;93691;-64
2023/05/18 11:09:55;;;;;;;;;;;19.30;55.40;;;;;;10150042;28;94458;-65
2023/05/18 11:14:57;;;;;;;;;;;19.40;55.80;;;;;;10169888;28;92581;-63
2023/05/18 11:20:05;;;;;;;;;;;19.40;55.70;;;;;;10165640;28;95909;-64
2023/05/18 11:25:29;;;;;;;;;;;19.40;55.60;;;;;;10169873;28;93517;-64
2023/05/18 11:30:35;;;;;;;;;;;19.40;55.10;;;;;;10169202;28;95122;-64
2023/05/18 11:35:55;;;;;;;;;;;19.40;55.20;;;;;;10169058;28;93696;-64
2023/05/18 11:40:58;;;;;;;;;;;19.30;54.80;;;;;;10167395;28;93771;-64
2023/05/18 11:46:00;;;;;;;;;;;19.30;54.90;;;;;;10168810;28;94565;-64
2023/05/18 11:51:06;;;;;;;;;;;19.30;55.00;;;;;;10167426;28;94988;-64
2023/05/18 11:56:10;;;;;;;;;;;19.30;55.00;;;;;;10169140;28;92884;-64
2023/05/18 12:01:13;;;;;;;;;;;19.30;55.00;;;;;;10162837;28;94524;-63
2023/05/18 12:06:15;;;;;;;;;;;19.30;55.00;;;;;;10148084;28;94484;-60
2023/05/18 12:11:17;;;;;;;;;;;19.30;55.10;;;;;;10163172;28;95959;-64
2023/05/18 12:16:20;;;;;;;;;;;19.30;55.20;;;;;;10167554;28;94507;-64
2023/05/18 12:21:23;;;;;;;;;;;19.30;55.20;;;;;;10167467;28;94532;-64
2023/05/18 12:26:25;;;;;;;;;;;19.30;55.40;;;;;;10167889;28;94493;-64
2023/05/18 12:31:26;;;;;;;;;;;19.30;54.60;;;;;;10167160;28;93085;-64
2023/05/18 12:36:28;;;;;;;;;;;19.30;51.60;;;;;;10166860;28;94101;-64
2023/05/18 12:41:30;;;;;;;;;;;19.20;49.50;;;;;;10166897;28;93330;-64
2023/05/18 12:46:31;;;;;;;;;;;19.20;49.40;;;;;;10167282;28;94049;-63
2023/05/18 12:51:37;;;;;;;;;;;19.10;48.10;;;;;;10165692;28;93900;-64
2023/05/18 12:57:04;;;;;;;;;;;19.10;47.30;;;;;;10166784;28;93664;-64
2023/05/18 13:02:06;;;;;;;;;;;19.00;47.10;;;;;;10163873;28;95346;-64
2023/05/18 13:07:10;;;;;;;;;;;19.00;46.50;;;;;;10166327;28;93951;-64
2023/05/18 13:12:12;;;;;;;;;;;19.00;46.90;;;;;;10168661;28;94648;-64
2023/05/18 13:17:20;;;;;;;;;;;19.00;47.50;;;;;;10173325;28;94595;-64
2023/05/18 13:22:21;;;;;;;;;;;19.00;47.60;;;;;;10173966;28;93708;-64
2023/05/18 13:27:23;;;;;;;;;;;19.00;48.00;;;;;;10173728;28;93523;-65
2023/05/18 13:32:25;;;;;;;;;;;19.00;48.50;;;;;;10173167;28;94482;-64
2023/05/18 13:37:26;;;;;;;;;;;19.10;49.40;;;;;;10156213;28;93572;-64
2023/05/18 13:42:28;;;;;;;;;;;19.10;50.00;;;;;;10173812;28;93033;-64
2023/05/18 13:47:30;;;;;;;;;;;19.10;50.40;;;;;;10172240;28;92984;-64
2023/05/18 13:52:31;;;;;;;;;;;19.10;51.00;;;;;;10170645;28;95940;-64
2023/05/18 13:57:33;;;;;;;;;;;19.10;51.30;;;;;;10173060;28;94931;-64
2023/05/18 14:02:36;;;;;;;;;;;19.10;52.40;;;;;;10173074;28;94510;-64
2023/05/18 14:07:41;;;;;;;;;;;19.20;52.70;;;;;;10172910;28;93608;-64
2023/05/18 14:12:43;;;;;;;;;;;19.20;52.60;;;;;;10155754;28;94453;-64
2023/05/18 14:17:45;;;;;;;;;;;19.20;52.70;;;;;;10172666;28;94552;-64
2023/05/18 14:22:47;;;;;;;;;;;19.10;53.00;;;;;;10169593;28;93182;-64
2023/05/18 14:27:48;;;;;;;;;;;19.10;53.20;;;;;;10172905;28;93765;-65
2023/05/18 14:32:50;;;;;;;;;;;19.10;53.50;;;;;;10171027;28;93592;-64
2023/05/18 14:37:52;;;;;;;;;;;19.10;53.70;;;;;;10171049;28;93510;-64
2023/05/18 14:42:53;;;;;;;;;;;19.10;53.90;;;;;;10169907;28;97270;-64
2023/05/18 14:47:55;;;;;;;;;;;19.10;54.00;;;;;;10171216;28;94485;-64
2023/05/18 14:52:57;;;;;;;;;;;19.10;54.40;;;;;;10154505;28;94499;-65
2023/05/18 14:58:01;;;;;;;;;;;19.10;54.40;;;;;;10170208;28;93616;-65
2023/05/18 15:03:02;;;;;;;;;;;19.10;54.40;;;;;;10170854;28;93810;-65
2023/05/18 15:08:04;;;;;;;;;;;19.10;54.60;;;;;;10170589;28;93452;-64
2023/05/18 15:13:06;;;;;;;;;;;19.10;54.90;;;;;;10170686;28;94565;-65
2023/05/18 15:18:08;;;;;;;;;;;19.10;55.00;;;;;;10164010;28;92907;-65
2023/05/18 15:23:10;;;;;;;;;;;19.20;55.30;;;;;;10170336;28;93893;-65
2023/05/18 15:28:12;;;;;;;;;;;19.20;55.40;;;;;;10153188;28;93547;-64
2023/05/18 15:33:14;;;;;;;;;;;19.20;55.60;;;;;;10149817;28;95945;-65
2023/05/18 15:38:16;;;;;;;;;;;19.20;55.60;;;;;;10168935;28;92533;-63
2023/05/18 15:43:19;;;;;;;;;;;19.20;55.50;;;;;;10171213;28;94592;-64
2023/05/18 15:48:20;;;;;;;;;;;19.20;56.50;;;;;;10169225;28;94719;-64
2023/05/18 15:53:22;;;;;;;;;;;19.20;55.20;;;;;;10169870;28;92905;-63
2023/05/18 15:58:24;;;;;;;;;;;19.20;55.00;;;;;;10169031;28;94782;-63
2023/05/18 16:03:26;;;;;;;;;;;19.20;55.10;;;;;;10151954;28;93367;-63
2023/05/18 16:08:27;;;;;;;;;;;19.20;56.10;;;;;;10168716;28;93887;-64
2023/05/18 16:13:32;;;;;;;;;;;19.40;59.60;;;;;;10168104;28;93449;-63
2023/05/18 16:18:33;;;;;;;;;;;19.70;62.30;;;;;;10168544;28;93719;-63
2023/05/18 16:23:35;;;;;;;;;;;19.90;61.20;;;;;;10165410;28;95852;-65
2023/05/18 16:28:37;;;;;;;;;;;20.00;61.00;;;;;;10167854;28;94426;-66
2023/05/18 16:33:39;;;;;;;;;;;20.00;60.00;;;;;;10165916;28;93540;-66
2023/05/18 16:38:41;;;;;;;;;;;20.10;59.20;;;;;;10150670;28;97184;-65
2023/05/18 16:43:43;;;;;;;;;;;20.10;58.90;;;;;;10166238;28;94507;-64
2023/05/18 16:48:44;;;;;;;;;;;20.10;59.50;;;;;;10166598;28;94632;-65
2023/05/18 16:53:46;;;;;;;;;;;20.10;59.60;;;;;;10166440;28;92583;-65
2023/05/18 16:58:52;;;;;;;;;;;20.10;59.70;;;;;;10167762;28;92925;-65
2023/05/18 17:03:54;;;;;;;;;;;20.00;59.70;;;;;;10150578;28;92732;-65
2023/05/18 17:08:58;;;;;;;;;;;20.00;59.80;;;;;;10166716;28;93195;-65
2023/05/18 17:14:00;;;;;;;;;;;20.00;59.70;;;;;;10164574;28;96154;-65
2023/05/18 17:19:02;;;;;;;;;;;20.00;59.70;;;;;;10166799;28;93584;-65
2023/05/18 17:24:04;;;;;;;;;;;20.10;59.70;;;;;;10165973;28;94533;-65
2023/05/18 17:29:05;;;;;;;;;;;20.00;59.60;;;;;;10166367;28;93494;-65
2023/05/18 17:34:07;;;;;;;;;;;20.10;59.90;;;;;;10166648;28;94623;-65
2023/05/18 17:39:09;;;;;;;;;;;20.10;60.00;;;;;;10164881;28;93504;-66
2023/05/18 17:44:15;;;;;;;;;;;20.10;59.90;;;;;;10165708;28;93859;-65
2023/05/18 17:49:17;;;;;;;;;;;20.00;60.00;;;;;;10165041;28;93778;-65
2023/05/18 17:54:18;;;;;;;;;;;20.00;60.10;;;;;;10165671;28;94589;-65
2023/05/18 17:59:20;;;;;;;;;;;20.00;60.20;;;;;;10151595;28;93623;-66
2023/05/18 18:04:22;;;;;;;;;;;19.90;60.20;;;;;;10152381;28;96975;-66
2023/05/18 18:09:24;;;;;;;;;;;20.00;60.40;;;;;;10172170;28;94465;-66
2023/05/18 18:14:26;;;;;;;;;;;20.00;60.40;;;;;;10171347;28;93883;-66
2023/05/18 18:19:28;;;;;;;;;;;19.90;60.10;;;;;;10172094;28;93868;-66
2023/05/18 18:24:29;;;;;;;;;;;19.90;59.90;;;;;;10171758;28;94756;-66
2023/05/18 18:29:31;;;;;;;;;;;19.90;59.80;;;;;;10154312;28;93470;-66
2023/05/18 18:34:33;;;;;;;;;;;19.90;59.60;;;;;;10172952;28;94567;-66
2023/05/18 18:39:35;;;;;;;;;;;19.90;60.00;;;;;;10170655;28;93692;-66
2023/05/18 18:44:37;;;;;;;;;;;19.90;60.90;;;;;;10171446;28;94612;-66
2023/05/18 18:49:38;;;;;;;;;;;19.80;61.30;;;;;;10153632;28;93484;-66
2023/05/18 18:54:40;;;;;;;;;;;19.80;62.10;;;;;;10169080;28;96650;-66
2023/05/18 18:59:42;;;;;;;;;;;19.80;61.10;;;;;;10171158;28;93583;-66
2023/05/18 19:04:44;;;;;;;;;;;19.80;61.20;;;;;;10170099;28;93544;-67
2023/05/18 19:09:48;;;;;;;;;;;19.80;61.10;;;;;;10170137;28;93304;-67
2023/05/18 19:14:49;;;;;;;;;;;19.80;62.00;;;;;;10170489;28;94531;-66
2023/05/18 19:19:52;;;;;;;;;;;19.80;61.40;;;;;;10170592;28;93546;-66
2023/05/18 19:24:54;;;;;;;;;;;19.80;60.60;;;;;;10169554;28;94480;-66
2023/05/18 19:29:55;;;;;;;;;;;19.70;60.80;;;;;;10170506;28;92965;-67
2023/05/18 19:34:57;;;;;;;;;;;19.70;60.80;;;;;;10152125;28;94661;-66
2023/05/18 19:39:59;;;;;;;;;;;19.70;60.80;;;;;;10169066;28;92549;-66
2023/05/18 19:45:03;;;;;;;;;;;19.60;60.80;;;;;;10165656;28;116396;-66
2023/05/18 19:50:05;;;;;;;;;;;19.60;60.70;;;;;;10168575;28;93486;-66
2023/05/18 19:55:07;;;;;;;;;;;19.70;60.60;;;;;;10170359;28;93585;-67
2023/05/18 20:00:12;;;;;;;;;;;19.60;60.70;;;;;;10168416;28;93703;-66
2023/05/18 20:05:16;;;;;;;;;;;19.60;60.70;;;;;;10169059;28;94502;-66
2023/05/18 20:10:18;;;;;;;;;;;19.60;60.80;;;;;;10167958;28;94891;-66
2023/05/18 20:15:20;;;;;;;;;;;19.60;60.70;;;;;;10168693;28;93628;-66
2023/05/18 20:20:22;;;;;;;;;;;19.50;60.60;;;;;;10168572;28;92754;-67
2023/05/18 20:25:25;;;;;;;;;;;19.50;60.60;;;;;;10167384;28;93688;-66
2023/05/18 20:30:27;;;;;;;;;;;19.50;60.50;;;;;;10168525;28;94625;-66
2023/05/18 20:35:29;;;;;;;;;;;19.50;60.40;;;;;;10165317;28;96024;-66
2023/05/18 20:40:30;;;;;;;;;;;19.50;61.50;;;;;;10168498;28;93991;-66
2023/05/18 20:45:32;;;;;;;;;;;19.50;60.40;;;;;;10167823;28;94475;-66
2023/05/18 20:50:34;;;;;;;;;;;19.40;60.30;;;;;;10167283;28;94181;-66
2023/05/18 20:55:37;;;;;;;;;;;19.40;60.30;;;;;;10167655;28;94528;-66
2023/05/18 21:00:39;;;;;;;;;;;19.40;60.10;;;;;;10166035;28;93475;-66
2023/05/18 21:05:42;;;;;;;;;;;19.40;60.10;;;;;;10150956;28;94781;-66
2023/05/18 21:10:44;;;;;;;;;;;19.40;60.10;;;;;;10167394;28;92685;-66
2023/05/18 21:15:46;;;;;;;;;;;19.40;60.10;;;;;;10167542;28;93549;-64
2023/05/18 21:20:47;;;;;;;;;;;19.40;60.00;;;;;;10166909;28;94444;-66
2023/05/18 21:25:49;;;;;;;;;;;19.40;60.10;;;;;;10162770;28;97047;-66
2023/05/18 21:30:51;;;;;;;;;;;19.40;60.10;;;;;;10165962;28;94552;-66
2023/05/18 21:35:53;;;;;;;;;;;19.40;60.00;;;;;;10172130;28;93681;-66
2023/05/18 21:40:55;;;;;;;;;;;19.30;59.90;;;;;;10156254;28;93531;-66
2023/05/18 21:45:57;;;;;;;;;;;19.30;59.90;;;;;;10173340;28;94214;-66
2023/05/18 21:50:59;;;;;;;;;;;19.30;59.80;;;;;;10171655;28;93356;-66
2023/05/18 21:56:01;;;;;;;;;;;19.30;59.80;;;;;;10173347;28;94163;-67
2023/05/18 22:01:02;;;;;;;;;;;19.30;59.70;;;;;;10173273;28;92781;-66
2023/05/18 22:06:04;;;;;;;;;;;19.30;59.70;;;;;;10171809;28;93474;-66
2023/05/18 22:11:06;;;;;;;;;;;19.20;59.40;;;;;;10172181;28;94488;-67
2023/05/18 22:16:07;;;;;;;;;;;19.20;59.30;;;;;;10153091;28;96078;-67
2023/05/18 22:21:09;;;;;;;;;;;19.20;59.20;;;;;;10163465;28;93567;-67
2023/05/18 22:26:12;;;;;;;;;;;19.20;59.00;;;;;;10172103;28;94480;-67
2023/05/18 22:31:14;;;;;;;;;;;19.10;58.90;;;;;;10171600;28;93291;-67
2023/05/18 22:36:19;;;;;;;;;;;19.10;58.90;;;;;;10171167;28;94941;-67
2023/05/18 22:41:21;;;;;;;;;;;19.10;58.80;;;;;;10154729;28;93686;-67
2023/05/18 22:46:23;;;;;;;;;;;19.10;58.70;;;;;;10171113;28;93605;-67
2023/05/18 22:51:25;;;;;;;;;;;19.10;58.60;;;;;;10171623;28;91949;-67
2023/05/18 22:56:26;;;;;;;;;;;19.10;58.60;;;;;;10171413;28;94759;-66
2023/05/18 23:01:28;;;;;;;;;;;19.10;58.60;;;;;;10171215;28;94635;-67
2023/05/18 23:06:30;;;;;;;;;;;19.10;58.50;;;;;;10168267;28;95827;-67
2023/05/18 23:11:33;;;;;;;;;;;19.10;58.50;;;;;;10170268;28;93761;-66
2023/05/18 23:16:35;;;;;;;;;;;19.10;58.50;;;;;;10170290;28;93485;-66
2023/05/18 23:21:37;;;;;;;;;;;19.00;58.40;;;;;;10170053;28;94503;-66
2023/05/18 23:26:39;;;;;;;;;;;19.10;58.40;;;;;;10169818;28;94638;-66
2023/05/18 23:31:41;;;;;;;;;;;19.00;58.30;;;;;;10152937;28;93478;-65
2023/05/18 23:36:43;;;;;;;;;;;19.00;58.30;;;;;;10170043;28;93491;-66
2023/05/18 23:41:45;;;;;;;;;;;19.00;58.30;;;;;;10153131;28;93774;-66
2023/05/18 23:46:47;;;;;;;;;;;19.00;58.30;;;;;;10168753;28;94573;-66
2023/05/18 23:51:50;;;;;;;;;;;18.90;58.20;;;;;;10169286;28;93661;-67
2023/05/18 23:56:52;;;;;;;;;;;18.90;58.10;;;;;;10167172;28;97224;-66
